createdAt,value
2018-01-18T00:00:59.621Z,4.24
2018-01-18T00:02:00.210Z,4.23
2018-01-18T00:03:00.805Z,4.24
2018-01-18T00:04:02.386Z,4.16
2018-01-18T00:05:02.986Z,4.14
2018-01-18T00:06:03.576Z,4.17
2018-01-18T00:07:04.176Z,4.16
2018-01-18T00:08:04.769Z,4.16
2018-01-18T00:09:05.374Z,4.16
2018-01-18T00:10:05.959Z,4.14
2018-01-18T00:11:06.665Z,4.09
2018-01-18T00:12:07.257Z,4.17
2018-01-18T00:13:07.854Z,4.17
2018-01-18T00:14:08.442Z,4.28
2018-01-18T00:15:09.033Z,4.28
2018-01-18T00:16:09.631Z,4.26
2018-01-18T00:17:10.231Z,4.41
2018-01-18T00:18:10.817Z,4.27
2018-01-18T00:19:11.409Z,4.32
2018-01-18T00:20:12.011Z,4.24
2018-01-18T00:21:12.595Z,4.26
2018-01-18T00:22:13.189Z,4.27
2018-01-18T00:23:13.785Z,4.36
2018-01-18T00:24:14.376Z,4.32
2018-01-18T00:25:14.980Z,4.36
2018-01-18T00:26:15.565Z,4.27
2018-01-18T00:27:16.174Z,4.27
2018-01-18T00:28:16.782Z,4.31
2018-01-18T00:29:17.376Z,4.36
2018-01-18T00:30:17.978Z,4.32
2018-01-18T00:31:18.585Z,4.38
2018-01-18T00:32:19.172Z,4.38
2018-01-18T00:33:19.772Z,4.39
2018-01-18T00:34:20.370Z,4.26
2018-01-18T00:35:20.976Z,4.31
2018-01-18T00:36:21.585Z,4.35
2018-01-18T00:37:22.168Z,4.35
2018-01-18T00:38:22.756Z,4.31
2018-01-18T00:39:23.355Z,4.28
2018-01-18T00:40:23.946Z,4.34
2018-01-18T00:41:24.548Z,4.14
2018-01-18T00:42:25.143Z,4.18
2018-01-18T00:43:25.747Z,4.27
2018-01-18T00:44:26.357Z,4.24
2018-01-18T00:45:26.958Z,4.14
2018-01-18T00:46:27.557Z,4.16
2018-01-18T00:47:28.165Z,4.13
2018-01-18T00:48:28.766Z,4.18
2018-01-18T00:49:29.362Z,4.17
2018-01-18T00:50:29.958Z,4.10
2018-01-18T00:51:30.570Z,4.17
2018-01-18T00:52:31.168Z,4.17
2018-01-18T00:53:31.752Z,4.14
2018-01-18T00:54:32.345Z,4.31
2018-01-18T00:55:32.937Z,4.27
2018-01-18T00:56:33.542Z,4.18
2018-01-18T00:57:34.129Z,4.17
2018-01-18T00:58:34.719Z,4.17
2018-01-18T00:59:35.304Z,4.16
2018-01-18T01:00:35.917Z,4.14
2018-01-18T01:01:36.531Z,4.18
2018-01-18T01:02:37.135Z,4.17
2018-01-18T01:03:37.725Z,4.14
2018-01-18T01:04:38.310Z,4.17
2018-01-18T01:05:38.904Z,4.16
2018-01-18T01:06:39.499Z,4.16
2018-01-18T01:07:40.093Z,4.17
2018-01-18T01:08:40.686Z,4.14
2018-01-18T01:09:41.286Z,4.10
2018-01-18T01:10:41.891Z,4.17
2018-01-18T01:11:42.479Z,4.13
2018-01-18T01:12:43.068Z,4.18
2018-01-18T01:13:43.648Z,4.21
2018-01-18T01:14:44.239Z,4.20
2018-01-18T01:15:44.838Z,4.26
2018-01-18T01:16:45.439Z,4.28
2018-01-18T01:17:46.033Z,4.27
2018-01-18T01:18:46.627Z,4.13
2018-01-18T01:19:47.219Z,4.16
2018-01-18T01:20:47.825Z,4.20
2018-01-18T01:21:48.435Z,4.13
2018-01-18T01:22:49.037Z,4.16
2018-01-18T01:23:49.625Z,4.16
2018-01-18T01:24:50.209Z,4.13
2018-01-18T01:25:50.799Z,4.18
2018-01-18T01:26:51.399Z,4.16
2018-01-18T01:27:52.010Z,4.20
2018-01-18T01:28:52.605Z,4.28
2018-01-18T01:29:53.191Z,4.24
2018-01-18T01:30:53.787Z,4.28
2018-01-18T01:31:54.391Z,4.28
2018-01-18T01:32:54.969Z,4.35
2018-01-18T01:33:55.566Z,4.38
2018-01-18T01:34:56.172Z,4.38
2018-01-18T01:35:56.770Z,4.35
2018-01-18T01:36:57.378Z,4.42
2018-01-18T01:37:57.962Z,4.48
2018-01-18T01:38:58.558Z,4.42
2018-01-18T01:39:59.157Z,4.42
2018-01-18T01:40:59.759Z,4.46
2018-01-18T01:42:00.360Z,4.45
2018-01-18T01:43:00.954Z,4.50
2018-01-18T01:44:01.553Z,4.45
2018-01-18T01:45:02.155Z,4.50
2018-01-18T01:46:02.749Z,4.54
2018-01-18T01:47:03.333Z,4.53
2018-01-18T01:48:03.921Z,4.62
2018-01-18T01:49:04.517Z,4.59
2018-01-18T01:50:05.113Z,4.63
2018-01-18T01:51:05.709Z,4.59
2018-01-18T01:52:06.305Z,4.64
2018-01-18T01:53:06.900Z,4.62
2018-01-18T01:54:07.495Z,4.63
2018-01-18T01:55:08.089Z,4.57
2018-01-18T01:56:08.677Z,4.59
2018-01-18T01:57:09.273Z,4.64
2018-01-18T01:58:09.876Z,4.80
2018-01-18T01:59:10.476Z,4.77
2018-01-18T02:00:11.068Z,4.77
2018-01-18T02:01:11.659Z,4.77
2018-01-18T02:02:12.273Z,4.83
2018-01-18T02:03:12.844Z,4.82
2018-01-18T02:04:13.443Z,4.75
2018-01-18T02:05:14.040Z,4.71
2018-01-18T02:06:14.644Z,4.89
2018-01-18T02:07:15.249Z,4.93
2018-01-18T02:08:15.849Z,4.91
2018-01-18T02:09:16.445Z,4.91
2018-01-18T02:10:17.035Z,4.93
2018-01-18T02:11:17.633Z,4.93
2018-01-18T02:12:18.218Z,4.90
2018-01-18T02:13:18.816Z,4.93
2018-01-18T02:14:19.403Z,4.89
2018-01-18T02:15:19.995Z,4.83
2018-01-18T02:16:20.598Z,4.86
2018-01-18T02:17:21.198Z,4.89
2018-01-18T02:18:21.777Z,4.93
2018-01-18T02:19:22.378Z,4.89
2018-01-18T02:20:22.977Z,4.93
2018-01-18T02:21:23.577Z,4.90
2018-01-18T02:22:24.176Z,4.93
2018-01-18T02:23:24.769Z,4.96
2018-01-18T02:24:25.368Z,4.93
2018-01-18T02:25:25.967Z,4.89
2018-01-18T02:26:26.561Z,4.96
2018-01-18T02:27:27.157Z,4.94
2018-01-18T02:28:27.749Z,4.93
2018-01-18T02:29:28.350Z,4.93
2018-01-18T02:30:28.945Z,4.90
2018-01-18T02:31:29.544Z,4.89
2018-01-18T02:32:30.129Z,4.80
2018-01-18T02:33:30.724Z,4.90
2018-01-18T02:34:31.316Z,4.82
2018-01-18T02:35:31.920Z,4.82
2018-01-18T02:36:32.495Z,4.82
2018-01-18T02:37:33.088Z,4.74
2018-01-18T02:38:33.692Z,4.85
2018-01-18T02:39:34.287Z,4.82
2018-01-18T02:40:34.878Z,4.82
2018-01-18T02:41:35.464Z,4.82
2018-01-18T02:42:36.065Z,4.83
2018-01-18T02:43:36.668Z,4.77
2018-01-18T02:44:37.326Z,4.77
2018-01-18T02:45:37.906Z,4.78
2018-01-18T02:46:38.497Z,4.82
2018-01-18T02:47:39.087Z,4.80
2018-01-18T02:48:39.685Z,4.62
2018-01-18T02:49:40.272Z,4.70
2018-01-18T02:50:40.859Z,4.60
2018-01-18T02:51:41.457Z,4.62
2018-01-18T02:52:42.053Z,4.60
2018-01-18T02:53:42.649Z,4.63
2018-01-18T02:54:43.242Z,4.62
2018-01-18T02:55:43.835Z,4.54
2018-01-18T02:56:44.431Z,4.59
2018-01-18T02:57:45.014Z,4.48
2018-01-18T02:58:45.613Z,4.45
2018-01-18T02:59:46.219Z,4.53
2018-01-18T03:00:46.807Z,4.42
2018-01-18T03:01:47.402Z,4.45
2018-01-18T03:02:47.990Z,4.46
2018-01-18T03:03:48.581Z,4.42
2018-01-18T03:04:49.180Z,4.44
2018-01-18T03:05:49.784Z,4.46
2018-01-18T03:06:50.379Z,4.45
2018-01-18T03:07:50.994Z,4.41
2018-01-18T03:08:51.567Z,4.41
2018-01-18T03:09:52.165Z,4.38
2018-01-18T03:10:52.769Z,4.44
2018-01-18T03:11:53.357Z,4.41
2018-01-18T03:12:53.940Z,4.44
2018-01-18T03:13:54.537Z,4.39
2018-01-18T03:14:55.138Z,4.44
2018-01-18T03:15:55.732Z,4.38
2018-01-18T03:16:56.323Z,4.35
2018-01-18T03:17:56.913Z,4.35
2018-01-18T03:18:57.509Z,4.35
2018-01-18T03:19:58.106Z,4.35
2018-01-18T03:20:58.706Z,4.31
2018-01-18T03:21:59.296Z,4.31
2018-01-18T03:22:59.883Z,4.36
2018-01-18T03:24:00.468Z,4.41
2018-01-18T03:25:01.063Z,4.35
2018-01-18T03:26:01.665Z,4.38
2018-01-18T03:27:02.259Z,4.41
2018-01-18T03:28:02.847Z,4.36
2018-01-18T03:29:03.439Z,4.28
2018-01-18T03:30:04.046Z,4.32
2018-01-18T03:31:04.639Z,4.27
2018-01-18T03:32:05.225Z,4.27
2018-01-18T03:33:05.813Z,4.27
2018-01-18T03:34:06.411Z,4.26
2018-01-18T03:35:06.992Z,4.27
2018-01-18T03:36:07.582Z,4.28
2018-01-18T03:37:08.183Z,4.32
2018-01-18T03:38:08.785Z,4.31
2018-01-18T03:39:09.379Z,4.28
2018-01-18T03:40:09.972Z,4.27
2018-01-18T03:41:10.563Z,4.32
2018-01-18T03:42:11.165Z,4.24
2018-01-18T03:43:11.761Z,4.26
2018-01-18T03:44:12.356Z,4.31
2018-01-18T03:45:12.940Z,4.26
2018-01-18T03:46:13.532Z,4.26
2018-01-18T03:47:14.131Z,4.26
2018-01-18T03:48:14.733Z,4.24
2018-01-18T03:49:15.332Z,4.21
2018-01-18T03:50:15.931Z,4.28
2018-01-18T03:51:16.521Z,4.20
2018-01-18T03:52:17.107Z,4.13
2018-01-18T03:53:17.709Z,4.14
2018-01-18T03:54:18.290Z,4.14
2018-01-18T03:55:18.882Z,4.20
2018-01-18T03:56:19.469Z,4.13
2018-01-18T03:57:20.063Z,4.18
2018-01-18T03:58:20.641Z,4.10
2018-01-18T03:59:21.238Z,4.16
2018-01-18T04:00:21.829Z,4.14
2018-01-18T04:01:22.433Z,4.13
2018-01-18T04:02:23.026Z,4.14
2018-01-18T04:03:23.624Z,4.03
2018-01-18T04:04:24.211Z,4.09
2018-01-18T04:05:24.808Z,4.14
2018-01-18T04:06:25.452Z,4.08
2018-01-18T04:07:25.997Z,4.14
2018-01-18T04:08:26.588Z,4.08
2018-01-18T04:09:27.187Z,4.13
2018-01-18T04:10:27.780Z,4.10
2018-01-18T04:11:28.371Z,4.08
2018-01-18T04:12:28.960Z,4.13
2018-01-18T04:13:29.555Z,4.09
2018-01-18T04:14:30.156Z,4.09
2018-01-18T04:15:30.736Z,4.06
2018-01-18T04:16:31.334Z,4.14
2018-01-18T04:17:31.941Z,4.06
2018-01-18T04:18:32.538Z,4.00
2018-01-18T04:19:33.124Z,4.03
2018-01-18T04:20:33.723Z,4.02
2018-01-18T04:21:34.321Z,4.05
2018-01-18T04:22:34.916Z,4.13
2018-01-18T04:23:35.505Z,4.14
2018-01-18T04:24:36.105Z,4.14
2018-01-18T04:25:36.701Z,4.16
2018-01-18T04:26:37.293Z,4.13
2018-01-18T04:27:37.896Z,4.16
2018-01-18T04:28:38.487Z,4.21
2018-01-18T04:29:39.078Z,4.20
2018-01-18T04:30:39.666Z,4.14
2018-01-18T04:31:40.257Z,4.16
2018-01-18T04:32:40.848Z,4.20
2018-01-18T04:33:41.440Z,4.24
2018-01-18T04:34:42.030Z,4.34
2018-01-18T04:35:42.630Z,4.27
2018-01-18T04:36:43.220Z,4.28
2018-01-18T04:37:43.820Z,4.32
2018-01-18T04:38:44.427Z,4.39
2018-01-18T04:39:45.033Z,4.38
2018-01-18T04:40:45.614Z,4.36
2018-01-18T04:41:46.213Z,4.44
2018-01-18T04:42:46.806Z,4.45
2018-01-18T04:43:47.406Z,4.50
2018-01-18T04:44:47.991Z,4.56
2018-01-18T04:45:48.581Z,4.63
2018-01-18T04:46:49.173Z,4.60
2018-01-18T04:47:49.774Z,4.75
2018-01-18T04:48:50.367Z,4.75
2018-01-18T04:49:50.966Z,4.82
2018-01-18T04:50:51.567Z,4.85
2018-01-18T04:51:52.171Z,4.94
2018-01-18T04:52:52.782Z,4.93
2018-01-18T04:53:53.389Z,4.93
2018-01-18T04:54:53.981Z,4.91
2018-01-18T04:55:54.576Z,5.03
2018-01-18T04:56:55.161Z,5.14
2018-01-18T04:57:55.758Z,5.08
2018-01-18T04:58:56.359Z,5.14
2018-01-18T04:59:56.942Z,5.11
2018-01-18T05:00:57.530Z,5.18
2018-01-18T05:01:58.123Z,5.26
2018-01-18T05:02:58.721Z,5.22
2018-01-18T05:03:59.320Z,5.26
2018-01-18T05:04:59.907Z,5.26
2018-01-18T05:06:00.504Z,5.34
2018-01-18T05:07:01.092Z,5.29
2018-01-18T05:08:01.690Z,5.27
2018-01-18T05:09:02.286Z,5.27
2018-01-18T05:10:02.884Z,5.44
2018-01-18T05:11:03.479Z,5.36
2018-01-18T05:12:04.092Z,5.29
2018-01-18T05:13:04.666Z,5.45
2018-01-18T05:14:05.266Z,5.51
2018-01-18T05:15:05.870Z,5.63
2018-01-18T05:16:06.472Z,5.61
2018-01-18T05:17:07.062Z,5.60
2018-01-18T05:18:07.654Z,5.58
2018-01-18T05:19:08.253Z,5.69
2018-01-18T05:20:08.844Z,5.66
2018-01-18T05:21:09.438Z,5.61
2018-01-18T05:22:10.039Z,5.63
2018-01-18T05:23:10.634Z,5.70
2018-01-18T05:24:11.225Z,5.60
2018-01-18T05:25:11.811Z,5.73
2018-01-18T05:26:12.395Z,5.75
2018-01-18T05:27:12.991Z,5.78
2018-01-18T05:28:13.582Z,5.81
2018-01-18T05:29:14.179Z,5.86
2018-01-18T05:30:14.771Z,5.79
2018-01-18T05:31:15.365Z,5.91
2018-01-18T05:32:15.958Z,5.84
2018-01-18T05:33:16.553Z,5.86
2018-01-18T05:34:17.144Z,5.99
2018-01-18T05:35:17.733Z,5.93
2018-01-18T05:36:18.334Z,5.96
2018-01-18T05:37:18.945Z,5.94
2018-01-18T05:38:19.527Z,5.91
2018-01-18T05:39:20.112Z,6.02
2018-01-18T05:40:20.706Z,6.05
2018-01-18T05:41:21.305Z,6.06
2018-01-18T05:42:21.892Z,6.11
2018-01-18T05:43:22.495Z,6.19
2018-01-18T05:44:23.104Z,6.12
2018-01-18T05:45:23.708Z,6.15
2018-01-18T05:46:24.313Z,6.25
2018-01-18T05:47:24.940Z,6.16
2018-01-18T05:48:25.520Z,6.24
2018-01-18T05:49:26.105Z,6.30
2018-01-18T05:50:26.704Z,6.35
2018-01-18T05:51:27.303Z,6.31
2018-01-18T05:52:27.893Z,6.40
2018-01-18T05:53:28.494Z,6.38
2018-01-18T05:54:29.094Z,6.49
2018-01-18T05:55:29.682Z,6.46
2018-01-18T05:56:30.270Z,6.50
2018-01-18T05:57:30.863Z,6.49
2018-01-18T05:58:31.456Z,6.53
2018-01-18T05:59:32.051Z,6.53
2018-01-18T06:00:32.659Z,6.46
2018-01-18T06:01:33.265Z,6.49
2018-01-18T06:02:33.865Z,6.39
2018-01-18T06:03:34.455Z,6.45
2018-01-18T06:04:35.039Z,6.55
2018-01-18T06:05:35.642Z,6.52
2018-01-18T06:06:36.247Z,6.52
2018-01-18T06:07:36.839Z,6.52
2018-01-18T06:08:37.435Z,6.46
2018-01-18T06:09:38.041Z,6.58
2018-01-18T06:10:38.629Z,6.55
2018-01-18T06:11:39.223Z,6.64
2018-01-18T06:12:39.818Z,6.61
2018-01-18T06:13:40.432Z,6.57
2018-01-18T06:14:40.998Z,6.58
2018-01-18T06:15:41.592Z,6.55
2018-01-18T06:16:42.179Z,6.63
2018-01-18T06:17:42.787Z,6.63
2018-01-18T06:18:43.380Z,6.66
2018-01-18T06:19:43.971Z,6.64
2018-01-18T06:20:44.566Z,6.71
2018-01-18T06:21:45.160Z,6.68
2018-01-18T06:22:45.759Z,6.76
2018-01-18T06:23:46.357Z,6.73
2018-01-18T06:24:46.961Z,6.78
2018-01-18T06:25:47.551Z,6.79
2018-01-18T06:26:48.139Z,6.78
2018-01-18T06:27:48.738Z,6.79
2018-01-18T06:28:49.324Z,6.71
2018-01-18T06:29:49.930Z,6.78
2018-01-18T06:30:50.529Z,6.71
2018-01-18T06:31:51.125Z,6.76
2018-01-18T06:32:51.728Z,6.70
2018-01-18T06:33:52.326Z,6.79
2018-01-18T06:34:52.968Z,6.84
2018-01-18T06:35:53.536Z,6.82
2018-01-18T06:36:54.134Z,6.96
2018-01-18T06:37:54.733Z,7.00
2018-01-18T06:38:55.330Z,7.15
2018-01-18T06:39:55.936Z,7.17
2018-01-18T06:40:56.567Z,7.14
2018-01-18T06:41:57.154Z,7.10
2018-01-18T06:42:57.750Z,7.09
2018-01-18T06:43:58.347Z,7.21
2018-01-18T06:44:58.941Z,7.22
2018-01-18T06:45:59.535Z,7.21
2018-01-18T06:47:00.156Z,7.28
2018-01-18T06:48:00.737Z,7.29
2018-01-18T06:49:01.325Z,7.28
2018-01-18T06:50:01.911Z,7.27
2018-01-18T06:51:02.512Z,7.25
2018-01-18T06:52:03.117Z,7.43
2018-01-18T06:53:03.710Z,7.39
2018-01-18T06:54:04.308Z,7.43
2018-01-18T06:55:04.920Z,7.40
2018-01-18T06:56:05.508Z,7.47
2018-01-18T06:57:06.103Z,7.47
2018-01-18T06:58:06.708Z,7.51
2018-01-18T06:59:07.311Z,7.57
2018-01-18T07:00:07.907Z,7.57
2018-01-18T07:01:08.500Z,7.61
2018-01-18T07:02:09.093Z,7.61
2018-01-18T07:03:09.699Z,7.66
2018-01-18T07:04:10.294Z,7.76
2018-01-18T07:05:10.890Z,7.81
2018-01-18T07:06:11.528Z,7.70
2018-01-18T07:07:12.099Z,7.83
2018-01-18T07:08:12.697Z,7.80
2018-01-18T07:09:13.288Z,7.81
2018-01-18T07:10:13.888Z,7.84
2018-01-18T07:11:14.701Z,7.81
2018-01-18T07:12:15.313Z,7.88
2018-01-18T07:13:15.918Z,7.94
2018-01-18T07:14:16.566Z,7.95
2018-01-18T07:15:17.167Z,7.95
2018-01-18T07:16:17.821Z,7.97
2018-01-18T07:17:18.418Z,8.02
2018-01-18T07:18:19.265Z,8.06
2018-01-18T07:19:19.843Z,8.01
2018-01-18T07:20:20.480Z,8.02
2018-01-18T07:21:21.047Z,7.92
2018-01-18T07:22:21.642Z,7.94
2018-01-18T07:23:22.236Z,8.02
2018-01-18T07:24:22.842Z,8.01
2018-01-18T07:25:23.443Z,7.95
2018-01-18T07:26:25.033Z,7.99
2018-01-18T07:27:25.624Z,8.04
2018-01-18T07:28:26.222Z,7.95
2018-01-18T07:29:26.828Z,7.98
2018-01-18T07:30:27.434Z,7.94
2018-01-18T07:31:28.040Z,7.94
2018-01-18T07:32:28.631Z,8.04
2018-01-18T07:33:29.243Z,8.06
2018-01-18T07:34:29.836Z,7.97
2018-01-18T07:35:30.445Z,8.09
2018-01-18T07:36:31.038Z,8.06
2018-01-18T07:37:31.635Z,8.01
2018-01-18T07:38:32.231Z,8.09
2018-01-18T07:39:32.835Z,8.04
2018-01-18T07:40:33.443Z,8.09
2018-01-18T07:41:34.049Z,8.20
2018-01-18T07:42:34.648Z,8.17
2018-01-18T07:43:35.253Z,8.17
2018-01-18T07:44:35.850Z,8.17
2018-01-18T07:45:36.454Z,8.13
2018-01-18T07:46:37.064Z,8.17
2018-01-18T07:47:37.670Z,8.16
2018-01-18T07:48:38.279Z,8.15
2018-01-18T07:49:38.879Z,8.23
2018-01-18T07:50:39.491Z,8.23
2018-01-18T07:51:40.092Z,8.16
2018-01-18T07:52:40.699Z,8.25
2018-01-18T07:53:41.308Z,8.27
2018-01-18T07:54:41.912Z,8.31
2018-01-18T07:55:42.510Z,8.48
2018-01-18T07:56:43.110Z,8.41
2018-01-18T07:57:43.714Z,8.52
2018-01-18T07:58:44.321Z,8.52
2018-01-18T07:59:44.919Z,8.53
2018-01-18T08:00:45.528Z,8.58
2018-01-18T08:01:46.130Z,8.68
2018-01-18T08:02:46.730Z,8.70
2018-01-18T08:03:47.342Z,8.74
2018-01-18T08:04:47.952Z,8.82
2018-01-18T08:05:48.562Z,8.92
2018-01-18T08:06:49.176Z,8.92
2018-01-18T08:07:49.770Z,9.00
2018-01-18T08:08:50.377Z,9.01
2018-01-18T08:09:50.992Z,8.98
2018-01-18T08:10:51.612Z,9.08
2018-01-18T08:11:52.220Z,9.12
2018-01-18T08:12:52.829Z,9.25
2018-01-18T08:13:53.436Z,9.26
2018-01-18T08:14:54.054Z,9.23
2018-01-18T08:15:54.659Z,9.32
2018-01-18T08:16:55.251Z,9.30
2018-01-18T08:17:55.852Z,9.25
2018-01-18T08:18:56.448Z,9.47
2018-01-18T08:19:57.053Z,9.48
2018-01-18T08:20:57.654Z,9.53
2018-01-18T08:21:58.250Z,9.61
2018-01-18T08:22:58.848Z,9.62
2018-01-18T08:23:59.460Z,9.74
2018-01-18T08:25:00.078Z,9.69
2018-01-18T08:26:00.684Z,9.81
2018-01-18T08:27:01.295Z,9.90
2018-01-18T08:28:01.907Z,9.90
2018-01-18T08:29:02.521Z,9.91
2018-01-18T08:30:03.131Z,9.81
2018-01-18T08:31:03.735Z,9.91
2018-01-18T08:32:04.344Z,9.84
2018-01-18T08:33:04.965Z,9.98
2018-01-18T08:34:05.564Z,9.94
2018-01-18T08:35:06.220Z,10.05
2018-01-18T08:36:06.825Z,10.05
2018-01-18T08:37:07.425Z,9.99
2018-01-18T08:38:08.037Z,10.01
2018-01-18T08:39:08.648Z,10.04
2018-01-18T08:40:09.252Z,9.98
2018-01-18T08:41:09.864Z,10.17
2018-01-18T08:42:10.478Z,10.20
2018-01-18T08:43:11.094Z,10.19
2018-01-18T08:44:11.704Z,10.24
2018-01-18T08:45:12.309Z,10.16
2018-01-18T08:46:12.911Z,10.29
2018-01-18T08:47:13.517Z,10.24
2018-01-18T08:48:14.114Z,10.22
2018-01-18T08:49:14.715Z,10.14
2018-01-18T08:50:15.333Z,10.23
2018-01-18T08:51:15.929Z,10.27
2018-01-18T08:52:16.582Z,10.34
2018-01-18T08:53:17.141Z,10.35
2018-01-18T08:54:17.749Z,10.34
2018-01-18T08:55:18.355Z,10.42
2018-01-18T08:56:18.959Z,10.32
2018-01-18T08:57:19.563Z,10.35
2018-01-18T08:58:20.171Z,10.39
2018-01-18T08:59:20.768Z,10.45
2018-01-18T09:00:21.370Z,10.53
2018-01-18T09:01:21.994Z,10.49
2018-01-18T09:02:22.611Z,10.53
2018-01-18T09:03:23.233Z,10.60
2018-01-18T09:04:23.828Z,10.60
2018-01-18T09:05:24.454Z,10.66
2018-01-18T09:06:25.057Z,10.58
2018-01-18T09:07:25.662Z,10.63
2018-01-18T09:08:26.272Z,10.69
2018-01-18T09:09:26.887Z,10.58
2018-01-18T09:10:27.503Z,10.64
2018-01-18T09:11:28.123Z,10.66
2018-01-18T09:12:28.726Z,10.66
2018-01-18T09:13:29.539Z,10.69
2018-01-18T09:14:30.137Z,10.64
2018-01-18T09:15:30.745Z,10.61
2018-01-18T09:16:31.347Z,10.75
2018-01-18T09:17:31.944Z,10.74
2018-01-18T09:18:32.554Z,10.75
2018-01-18T09:19:33.158Z,10.76
2018-01-18T09:20:33.764Z,10.87
2018-01-18T09:21:34.368Z,10.97
2018-01-18T09:22:34.975Z,10.87
2018-01-18T09:23:35.588Z,10.90
2018-01-18T09:24:36.204Z,10.90
2018-01-18T09:25:36.809Z,10.79
2018-01-18T09:26:37.430Z,10.83
2018-01-18T09:27:38.021Z,10.83
2018-01-18T09:28:38.633Z,10.85
2018-01-18T09:29:39.249Z,10.75
2018-01-18T09:30:39.847Z,10.78
2018-01-18T09:31:40.456Z,10.58
2018-01-18T09:32:41.051Z,10.71
2018-01-18T09:33:41.660Z,10.58
2018-01-18T09:34:42.282Z,10.56
2018-01-18T09:35:42.906Z,10.53
2018-01-18T09:36:43.509Z,10.49
2018-01-18T09:37:44.121Z,10.54
2018-01-18T09:38:44.730Z,10.37
2018-01-18T09:39:45.349Z,10.51
2018-01-18T09:40:45.950Z,10.47
2018-01-18T09:41:46.557Z,10.47
2018-01-18T09:42:47.174Z,10.38
2018-01-18T09:43:47.794Z,10.35
2018-01-18T09:44:48.409Z,10.34
2018-01-18T09:45:49.025Z,10.35
2018-01-18T09:46:49.653Z,10.42
2018-01-18T09:47:50.273Z,10.39
2018-01-18T09:48:50.879Z,10.39
2018-01-18T09:49:51.492Z,10.39
2018-01-18T09:50:52.090Z,10.35
2018-01-18T09:51:52.693Z,10.32
2018-01-18T09:52:53.323Z,10.27
2018-01-18T09:53:53.907Z,10.24
2018-01-18T09:54:54.526Z,10.27
2018-01-18T09:55:55.138Z,10.19
2018-01-18T09:56:55.747Z,10.20
2018-01-18T09:57:56.363Z,10.17
2018-01-18T09:58:57.013Z,10.23
2018-01-18T09:59:57.601Z,10.26
2018-01-18T10:00:58.208Z,10.16
2018-01-18T10:01:58.824Z,10.26
2018-01-18T10:02:59.445Z,10.23
2018-01-18T10:04:00.053Z,10.24
2018-01-18T10:05:00.660Z,10.20
2018-01-18T10:06:01.273Z,10.20
2018-01-18T10:07:01.949Z,10.05
2018-01-18T10:08:02.495Z,10.01
2018-01-18T10:09:03.145Z,9.96
2018-01-18T10:10:03.712Z,10.01
2018-01-18T10:11:04.725Z,10.01
2018-01-18T10:12:05.349Z,9.94
2018-01-18T10:13:05.954Z,9.94
2018-01-18T10:14:06.567Z,9.95
2018-01-18T10:15:07.169Z,9.87
2018-01-18T10:16:07.773Z,9.84
2018-01-18T10:17:08.384Z,10.02
2018-01-18T10:18:09.003Z,9.94
2018-01-18T10:19:09.612Z,10.13
2018-01-18T10:20:10.233Z,10.41
2018-01-18T10:21:10.849Z,10.63
2018-01-18T10:22:11.479Z,10.49
2018-01-18T10:23:12.096Z,10.51
2018-01-18T10:24:12.719Z,10.58
2018-01-18T10:25:13.334Z,10.82
2018-01-18T10:26:13.954Z,10.76
2018-01-18T10:27:14.583Z,10.75
2018-01-18T10:28:15.202Z,10.81
2018-01-18T10:29:15.801Z,10.93
2018-01-18T10:30:16.581Z,10.89
2018-01-18T10:31:17.187Z,10.82
2018-01-18T10:32:17.794Z,10.93
2018-01-18T10:33:18.405Z,11.07
2018-01-18T10:34:19.036Z,11.04
2018-01-18T10:35:19.661Z,10.66
2018-01-18T10:36:20.272Z,10.57
2018-01-18T10:37:20.883Z,10.27
2018-01-18T10:38:21.504Z,10.22
2018-01-18T10:39:22.136Z,10.14
2018-01-18T10:40:22.730Z,10.01
2018-01-18T10:41:23.340Z,10.20
2018-01-18T10:42:23.956Z,10.19
2018-01-18T10:43:24.579Z,9.96
2018-01-18T10:44:25.197Z,9.86
2018-01-18T10:45:25.802Z,9.63
2018-01-18T10:46:26.435Z,9.66
2018-01-18T10:47:27.052Z,9.48
2018-01-18T10:48:27.656Z,9.30
2018-01-18T10:49:28.271Z,9.29
2018-01-18T10:50:28.879Z,9.26
2018-01-18T10:51:29.493Z,9.23
2018-01-18T10:52:30.097Z,9.12
2018-01-18T10:53:30.705Z,9.00
2018-01-18T10:54:31.320Z,8.91
2018-01-18T10:55:31.943Z,8.78
2018-01-18T10:56:32.532Z,8.74
2018-01-18T10:57:33.154Z,8.64
2018-01-18T10:58:33.781Z,8.60
2018-01-18T10:59:34.395Z,8.53
2018-01-18T11:00:35.001Z,8.48
2018-01-18T11:01:35.603Z,8.30
2018-01-18T11:02:36.228Z,8.27
2018-01-18T11:03:37.082Z,8.22
2018-01-18T11:04:37.698Z,8.23
2018-01-18T11:05:39.297Z,8.07
2018-01-18T11:06:39.908Z,8.16
2018-01-18T11:07:40.534Z,8.16
2018-01-18T11:08:41.144Z,8.09
2018-01-18T11:09:41.819Z,8.12
2018-01-18T11:10:42.371Z,8.01
2018-01-18T11:11:42.983Z,8.02
2018-01-18T11:12:43.579Z,7.97
2018-01-18T11:13:44.206Z,8.07
2018-01-18T11:14:44.790Z,8.16
2018-01-18T11:15:45.397Z,8.23
2018-01-18T11:16:46.008Z,8.31
2018-01-18T11:17:46.614Z,8.45
2018-01-18T11:18:47.223Z,8.55
2018-01-18T11:19:47.832Z,8.64
2018-01-18T11:20:48.444Z,9.00
2018-01-18T11:21:49.057Z,9.00
2018-01-18T11:22:49.667Z,8.95
2018-01-18T11:23:50.285Z,9.00
2018-01-18T11:24:50.886Z,9.01
2018-01-18T11:25:51.503Z,9.03
2018-01-18T11:26:52.098Z,9.50
2018-01-18T11:27:52.704Z,9.79
2018-01-18T11:28:53.323Z,9.83
2018-01-18T11:29:53.943Z,10.24
2018-01-18T11:30:54.543Z,10.54
2018-01-18T11:31:55.147Z,10.58
2018-01-18T11:32:55.765Z,10.51
2018-01-18T11:33:56.408Z,10.54
2018-01-18T11:34:56.975Z,10.74
2018-01-18T11:35:57.578Z,10.82
2018-01-18T11:36:58.188Z,10.85
2018-01-18T11:37:58.795Z,10.81
2018-01-18T11:38:59.398Z,10.75
2018-01-18T11:40:00.098Z,10.75
2018-01-18T11:41:00.648Z,10.74
2018-01-18T11:42:01.255Z,10.83
2018-01-18T11:43:01.869Z,10.72
2018-01-18T11:44:02.480Z,10.63
2018-01-18T11:45:03.092Z,10.72
2018-01-18T11:46:03.721Z,10.82
2018-01-18T11:47:04.336Z,10.94
2018-01-18T11:48:04.956Z,10.63
2018-01-18T11:49:05.562Z,10.76
2018-01-18T11:50:06.227Z,10.78
2018-01-18T11:51:06.778Z,10.76
2018-01-18T11:52:07.384Z,10.78
2018-01-18T11:53:08.002Z,10.90
2018-01-18T11:54:08.607Z,11.12
2018-01-18T11:55:09.235Z,10.97
2018-01-18T11:56:09.863Z,10.87
2018-01-18T11:57:10.488Z,10.41
2018-01-18T11:58:11.087Z,10.22
2018-01-18T11:59:11.707Z,10.38
2018-01-18T12:00:12.353Z,10.20
2018-01-18T12:01:12.988Z,9.87
2018-01-18T12:02:13.607Z,9.68
2018-01-18T12:03:14.226Z,9.76
2018-01-18T12:04:14.842Z,9.77
2018-01-18T12:05:15.447Z,9.63
2018-01-18T12:06:16.077Z,9.65
2018-01-18T12:07:16.683Z,9.23
2018-01-18T12:08:17.293Z,9.04
2018-01-18T12:09:17.899Z,8.92
2018-01-18T12:10:18.519Z,8.88
2018-01-18T12:11:19.124Z,8.58
2018-01-18T12:12:19.753Z,8.55
2018-01-18T12:13:20.337Z,8.59
2018-01-18T12:14:20.958Z,8.33
2018-01-18T12:15:21.589Z,8.28
2018-01-18T12:16:22.188Z,8.31
2018-01-18T12:17:22.799Z,8.58
2018-01-18T12:18:23.406Z,8.73
2018-01-18T12:19:24.013Z,8.89
2018-01-18T12:20:24.610Z,8.93
2018-01-18T12:21:25.213Z,8.93
2018-01-18T12:22:25.813Z,8.67
2018-01-18T12:23:26.420Z,8.68
2018-01-18T12:24:27.039Z,8.63
2018-01-18T12:25:27.708Z,8.63
2018-01-18T12:26:28.313Z,8.64
2018-01-18T12:27:28.924Z,8.46
2018-01-18T12:28:29.541Z,8.43
2018-01-18T12:29:30.166Z,8.37
2018-01-18T12:30:30.790Z,8.27
2018-01-18T12:31:31.385Z,8.19
2018-01-18T12:32:31.995Z,8.07
2018-01-18T12:33:32.611Z,7.99
2018-01-18T12:34:33.230Z,7.97
2018-01-18T12:35:33.844Z,7.88
2018-01-18T12:36:34.465Z,7.94
2018-01-18T12:37:35.068Z,7.88
2018-01-18T12:38:35.679Z,7.95
2018-01-18T12:39:36.303Z,7.97
2018-01-18T12:40:36.922Z,7.84
2018-01-18T12:41:37.506Z,7.70
2018-01-18T12:42:38.133Z,7.69
2018-01-18T12:43:38.740Z,7.73
2018-01-18T12:44:39.340Z,7.76
2018-01-18T12:45:39.944Z,7.79
2018-01-18T12:46:40.563Z,7.73
2018-01-18T12:47:41.168Z,7.76
2018-01-18T12:48:41.778Z,7.73
2018-01-18T12:49:42.383Z,7.83
2018-01-18T12:50:43.035Z,7.95
2018-01-18T12:51:43.635Z,7.88
2018-01-18T12:52:44.218Z,7.89
2018-01-18T12:53:44.835Z,8.01
2018-01-18T12:54:45.449Z,8.04
2018-01-18T12:55:46.041Z,8.07
2018-01-18T12:56:46.637Z,8.07
2018-01-18T12:57:47.239Z,8.06
2018-01-18T12:58:47.837Z,8.22
2018-01-18T12:59:48.456Z,8.17
2018-01-18T13:00:49.080Z,8.27
2018-01-18T13:01:49.690Z,8.25
2018-01-18T13:02:50.525Z,8.41
2018-01-18T13:03:51.130Z,8.27
2018-01-18T13:04:51.746Z,8.25
2018-01-18T13:05:52.346Z,8.33
2018-01-18T13:06:52.961Z,8.23
2018-01-18T13:07:53.588Z,8.28
2018-01-18T13:08:54.205Z,8.34
2018-01-18T13:09:54.824Z,8.33
2018-01-18T13:10:55.429Z,8.28
2018-01-18T13:11:56.032Z,8.27
2018-01-18T13:12:56.652Z,8.27
2018-01-18T13:13:57.275Z,8.34
2018-01-18T13:14:57.884Z,8.25
2018-01-18T13:15:58.492Z,8.30
2018-01-18T13:16:59.297Z,8.30
2018-01-18T13:17:59.921Z,8.13
2018-01-18T13:19:00.555Z,8.13
2018-01-18T13:20:01.144Z,8.19
2018-01-18T13:21:01.754Z,8.13
2018-01-18T13:22:02.411Z,8.22